Time;durP1;ratioP1;P1;durP2;ratioP2;P2;SDS_P1;SDS_P2;PMS_P1;PMS_P2;Temp;Humidity;BMP_temperature;BMP_pressure;BME280_temperature;BME280_humidity;BME280_pressure;Samples;Min_cycle;Max_cycle;Signal;HPM_P1;HPM_P2
2023/03/22 00:01:16;;;;;;;;;;;11.50;76.70;;;;;;5093516;28;19912;-80
2023/03/22 00:03:41;;;;;;;;;;;11.50;76.70;;;;;;5081663;28;20005;-79
2023/03/22 00:06:07;;;;;;;;;;;11.50;77.00;;;;;;5090250;28;19952;-79
2023/03/22 00:08:33;;;;;;;;;;;11.60;76.70;;;;;;5091458;28;19965;-79
2023/03/22 00:10:59;;;;;;;;;;;11.60;76.50;;;;;;5094254;28;19923;-79
2023/03/22 00:13:24;;;;;;;;;;;11.60;76.50;;;;;;5085008;28;20238;-80
2023/03/22 00:15:50;;;;;;;;;;;11.60;76.60;;;;;;5089761;28;20001;-79
2023/03/22 00:18:15;;;;;;;;;;;11.60;76.80;;;;;;5089147;28;20285;-78
2023/03/22 00:20:48;;;;;;;;;;;11.60;76.60;;;;;;5085956;28;20021;-81
2023/03/22 00:23:13;;;;;;;;;;;11.60;76.70;;;;;;5099680;28;19912;-79
2023/03/22 00:25:39;;;;;;;;;;;11.70;76.70;;;;;;5100043;28;20025;-79
2023/03/22 00:28:04;;;;;;;;;;;11.60;76.90;;;;;;5088115;28;19912;-79
2023/03/22 00:30:30;;;;;;;;;;;11.70;77.10;;;;;;5077716;28;19924;-79
2023/03/22 00:32:55;;;;;;;;;;;11.70;77.30;;;;;;5084587;28;20447;-79
2023/03/22 00:35:21;;;;;;;;;;;11.60;77.00;;;;;;5086857;28;20046;-79
2023/03/22 00:37:50;;;;;;;;;;;11.70;77.40;;;;;;5081727;28;19912;-79
2023/03/22 00:40:15;;;;;;;;;;;11.70;77.50;;;;;;5083930;28;19920;-79
2023/03/22 00:42:41;;;;;;;;;;;11.60;77.70;;;;;;5084365;28;19919;-79
2023/03/22 00:45:08;;;;;;;;;;;11.70;77.40;;;;;;5085347;28;19948;-78
2023/03/22 00:47:34;;;;;;;;;;;11.60;77.60;;;;;;5088557;28;19955;-78
2023/03/22 00:49:59;;;;;;;;;;;11.70;77.40;;;;;;5079855;28;19934;-79
2023/03/22 00:52:25;;;;;;;;;;;11.70;77.40;;;;;;5090234;28;19924;-79
2023/03/22 00:54:50;;;;;;;;;;;11.70;77.00;;;;;;5091831;28;19919;-79
2023/03/22 00:57:16;;;;;;;;;;;11.80;77.00;;;;;;5084070;28;19932;-79
2023/03/22 00:59:42;;;;;;;;;;;11.70;76.50;;;;;;5087564;28;19973;-78
2023/03/22 01:02:08;;;;;;;;;;;11.80;76.50;;;;;;5095536;28;19919;-79
2023/03/22 01:04:34;;;;;;;;;;;11.70;76.50;;;;;;5088728;28;20345;-81
2023/03/22 01:07:02;;;;;;;;;;;11.80;76.30;;;;;;5083067;28;19981;-79
2023/03/22 01:09:30;;;;;;;;;;;11.70;76.40;;;;;;5088370;28;19944;-80
2023/03/22 01:11:56;;;;;;;;;;;11.60;76.50;;;;;;5101532;28;19971;-80
2023/03/22 01:14:22;;;;;;;;;;;11.60;76.60;;;;;;5083642;28;19966;-80
2023/03/22 01:16:48;;;;;;;;;;;11.50;77.00;;;;;;5085595;28;20386;-79
2023/03/22 01:19:14;;;;;;;;;;;11.50;76.90;;;;;;5088649;28;19917;-80
2023/03/22 01:21:39;;;;;;;;;;;11.50;77.10;;;;;;5089099;28;19912;-80
2023/03/22 01:24:05;;;;;;;;;;;11.60;76.80;;;;;;5088418;28;19912;-80
2023/03/22 01:26:30;;;;;;;;;;;11.60;76.60;;;;;;5094311;28;19935;-80
2023/03/22 01:28:56;;;;;;;;;;;11.50;76.90;;;;;;5082801;28;20384;-80
2023/03/22 01:31:21;;;;;;;;;;;11.50;76.90;;;;;;5087623;28;20390;-80
2023/03/22 01:33:47;;;;;;;;;;;11.60;76.70;;;;;;5083689;28;19922;-81
2023/03/22 01:36:12;;;;;;;;;;;11.50;77.10;;;;;;5085044;28;20369;-80
2023/03/22 01:38:37;;;;;;;;;;;11.40;77.80;;;;;;5089116;28;19969;-80
2023/03/22 01:41:03;;;;;;;;;;;11.30;78.30;;;;;;5087886;28;19916;-80
2023/03/22 01:43:29;;;;;;;;;;;11.40;78.20;;;;;;5083400;28;20335;-79
2023/03/22 01:45:54;;;;;;;;;;;11.30;78.20;;;;;;5086764;28;19916;-79
2023/03/22 01:48:23;;;;;;;;;;;11.30;78.40;;;;;;5087594;28;20409;-79
2023/03/22 01:50:58;;;;;;;;;;;11.40;78.40;;;;;;5079983;28;19924;-81
2023/03/22 01:53:24;;;;;;;;;;;11.40;78.30;;;;;;5090347;28;19918;-79
2023/03/22 01:55:50;;;;;;;;;;;11.50;78.00;;;;;;5079898;28;19999;-79
2023/03/22 01:58:17;;;;;;;;;;;11.50;78.10;;;;;;5086035;28;20018;-80
2023/03/22 02:00:43;;;;;;;;;;;11.50;77.90;;;;;;5084049;28;19920;-80
2023/03/22 02:03:09;;;;;;;;;;;11.30;78.20;;;;;;5088635;28;19956;-80
2023/03/22 02:05:34;;;;;;;;;;;11.40;78.40;;;;;;5086005;28;19951;-80
2023/03/22 02:08:00;;;;;;;;;;;11.40;78.20;;;;;;5084429;28;20015;-80
2023/03/22 02:10:26;;;;;;;;;;;11.40;78.00;;;;;;5082939;28;19931;-80
2023/03/22 02:13:10;;;;;;;;;;;11.50;78.10;;;;;;5087321;28;20270;-79
2023/03/22 02:15:36;;;;;;;;;;;11.50;78.40;;;;;;5087301;28;19955;-79
2023/03/22 02:18:15;;;;;;;;;;;11.40;78.00;;;;;;5087482;28;19958;-79
2023/03/22 02:21:01;;;;;;;;;;;11.40;78.40;;;;;;5090933;28;19965;-80
2023/03/22 02:23:26;;;;;;;;;;;11.40;78.50;;;;;;5097329;28;19944;-80
2023/03/22 02:26:09;;;;;;;;;;;11.40;79.00;;;;;;5093582;28;20346;-79
2023/03/22 02:28:39;;;;;;;;;;;11.40;78.80;;;;;;5088680;28;19943;-79
2023/03/22 02:31:05;;;;;;;;;;;11.30;79.00;;;;;;5090197;28;20335;-79
2023/03/22 02:37:00;;;;;;;;;;;11.30;78.90;;;;;;5077783;28;20102;-79
2023/03/22 02:39:52;;;;;;;;;;;11.30;78.80;;;;;;5061353;28;19917;-79
2023/03/22 02:42:21;;;;;;;;;;;11.30;78.50;;;;;;5088527;28;20345;-80
2023/03/22 02:44:57;;;;;;;;;;;11.30;78.40;;;;;;5088590;28;19920;-79
2023/03/22 02:47:27;;;;;;;;;;;11.20;78.70;;;;;;5085082;28;20296;-80
2023/03/22 02:50:09;;;;;;;;;;;11.30;78.50;;;;;;5086030;28;19982;-80
2023/03/22 02:52:40;;;;;;;;;;;11.30;78.30;;;;;;5083961;28;19924;-79
2023/03/22 02:55:08;;;;;;;;;;;11.30;78.50;;;;;;5083387;28;19923;-80
2023/03/22 03:00:09;;;;;;;;;;;11.10;79.10;;;;;;5079234;28;19924;-80
2023/03/22 03:02:36;;;;;;;;;;;11.10;79.20;;;;;;5072394;28;19956;-80
2023/03/22 03:05:02;;;;;;;;;;;11.10;79.10;;;;;;5065662;28;20389;-80
2023/03/22 03:07:29;;;;;;;;;;;11.20;79.00;;;;;;5064336;28;19916;-80
2023/03/22 03:09:55;;;;;;;;;;;11.20;78.90;;;;;;5080145;28;19948;-80
2023/03/22 03:12:23;;;;;;;;;;;11.10;79.40;;;;;;5087171;28;19966;-79
2023/03/22 03:14:48;;;;;;;;;;;11.20;78.90;;;;;;5068022;28;20005;-80
2023/03/22 03:17:33;;;;;;;;;;;11.20;79.00;;;;;;5081587;28;20607;-80
2023/03/22 03:20:01;;;;;;;;;;;11.10;79.00;;;;;;5069371;28;19919;-79
2023/03/22 03:22:41;;;;;;;;;;;11.20;78.90;;;;;;5082683;28;19934;-80
2023/03/22 03:25:17;;;;;;;;;;;11.10;79.00;;;;;;5088966;28;19965;-80
2023/03/22 03:27:48;;;;;;;;;;;10.90;79.60;;;;;;5070313;28;19934;-80
2023/03/22 03:30:27;;;;;;;;;;;10.80;80.20;;;;;;5080968;28;19920;-79
2023/03/22 03:32:55;;;;;;;;;;;11.00;79.90;;;;;;5061811;28;19923;-79
2023/03/22 03:35:25;;;;;;;;;;;10.90;79.60;;;;;;5071918;28;19919;-81
2023/03/22 03:37:56;;;;;;;;;;;10.70;79.90;;;;;;5083559;28;19952;-79
2023/03/22 03:40:23;;;;;;;;;;;10.70;80.00;;;;;;5071878;28;20354;-79
2023/03/22 03:42:50;;;;;;;;;;;10.70;80.50;;;;;;5069794;28;19962;-79
2023/03/22 03:45:17;;;;;;;;;;;10.60;80.60;;;;;;5067443;28;19977;-79
2023/03/22 03:47:44;;;;;;;;;;;10.60;80.60;;;;;;5085824;28;19915;-79
2023/03/22 03:50:11;;;;;;;;;;;10.60;80.60;;;;;;5088370;28;19961;-80
2023/03/22 03:52:36;;;;;;;;;;;10.50;80.70;;;;;;5087476;28;19935;-80
2023/03/22 03:55:02;;;;;;;;;;;10.50;80.90;;;;;;5085843;28;19912;-80
2023/03/22 03:57:27;;;;;;;;;;;10.50;81.00;;;;;;5071845;28;19921;-80
2023/03/22 03:59:53;;;;;;;;;;;10.50;81.20;;;;;;5088555;28;19924;-81
2023/03/22 04:02:18;;;;;;;;;;;10.50;81.30;;;;;;5060716;28;20287;-79
2023/03/22 04:04:44;;;;;;;;;;;10.50;81.10;;;;;;5082445;28;20023;-80
2023/03/22 04:07:09;;;;;;;;;;;10.50;80.80;;;;;;5088875;28;19912;-80
2023/03/22 04:09:36;;;;;;;;;;;10.50;81.10;;;;;;5066989;28;20371;-80
2023/03/22 04:12:02;;;;;;;;;;;10.50;81.00;;;;;;5062812;28;19928;-79
2023/03/22 04:14:28;;;;;;;;;;;10.40;81.30;;;;;;5066926;28;19920;-80
2023/03/22 04:16:53;;;;;;;;;;;10.30;81.50;;;;;;5071497;28;19916;-78
2023/03/22 04:19:19;;;;;;;;;;;10.40;81.30;;;;;;5068352;28;19923;-79
2023/03/22 04:21:45;;;;;;;;;;;10.50;81.00;;;;;;5067971;28;19913;-79
2023/03/22 04:24:11;;;;;;;;;;;10.50;81.10;;;;;;5065568;28;19963;-79
2023/03/22 04:26:36;;;;;;;;;;;10.40;81.40;;;;;;5070183;28;19912;-79
2023/03/22 04:29:01;;;;;;;;;;;10.20;81.80;;;;;;5092634;28;20393;-79
2023/03/22 04:31:28;;;;;;;;;;;10.30;81.90;;;;;;5079300;28;19943;-79
2023/03/22 04:33:55;;;;;;;;;;;10.30;81.60;;;;;;5090736;28;19978;-79
2023/03/22 04:36:21;;;;;;;;;;;10.30;81.70;;;;;;5067604;28;20299;-79
2023/03/22 04:38:47;;;;;;;;;;;10.40;81.60;;;;;;5085245;28;19923;-78
2023/03/22 04:41:12;;;;;;;;;;;10.40;81.50;;;;;;5067573;28;20337;-78
2023/03/22 04:43:38;;;;;;;;;;;10.30;81.70;;;;;;5084433;28;19952;-78
2023/03/22 04:46:11;;;;;;;;;;;10.20;81.80;;;;;;5085376;28;20014;-78
2023/03/22 04:48:38;;;;;;;;;;;10.20;82.00;;;;;;5083621;28;19943;-79
2023/03/22 04:51:07;;;;;;;;;;;10.10;82.20;;;;;;5068993;28;20351;-78
2023/03/22 04:53:37;;;;;;;;;;;10.30;81.70;;;;;;5058972;28;20433;-78
2023/03/22 04:56:07;;;;;;;;;;;10.20;81.90;;;;;;5073244;28;19918;-78
2023/03/22 04:58:34;;;;;;;;;;;10.30;81.80;;;;;;5063988;28;20631;-80
2023/03/22 05:01:00;;;;;;;;;;;10.30;81.70;;;;;;5055472;28;19916;-78
2023/03/22 05:03:25;;;;;;;;;;;10.20;81.80;;;;;;5068584;28;19920;-78
2023/03/22 05:05:52;;;;;;;;;;;10.20;82.10;;;;;;5058948;28;19912;-79
2023/03/22 05:08:18;;;;;;;;;;;10.10;82.10;;;;;;5069506;28;19912;-79
2023/03/22 05:10:44;;;;;;;;;;;10.10;82.20;;;;;;5084920;28;20014;-79
2023/03/22 05:13:10;;;;;;;;;;;10.10;82.30;;;;;;5061408;28;20012;-79
2023/03/22 05:15:37;;;;;;;;;;;10.10;82.20;;;;;;5085927;28;19931;-79
2023/03/22 05:18:03;;;;;;;;;;;10.20;82.20;;;;;;5067922;28;19912;-78
2023/03/22 05:20:28;;;;;;;;;;;10.20;82.20;;;;;;5069617;28;19935;-79
2023/03/22 05:22:55;;;;;;;;;;;10.30;81.90;;;;;;5065440;28;19916;-79
2023/03/22 05:25:21;;;;;;;;;;;10.40;81.50;;;;;;5065266;28;19916;-79
2023/03/22 05:27:49;;;;;;;;;;;10.30;81.50;;;;;;5063491;28;19934;-79
2023/03/22 05:30:14;;;;;;;;;;;10.40;81.30;;;;;;5082491;28;19955;-79
2023/03/22 05:32:42;;;;;;;;;;;10.40;81.30;;;;;;5087386;28;19939;-80
2023/03/22 05:35:08;;;;;;;;;;;10.50;81.30;;;;;;5105985;28;19905;-79
2023/03/22 05:37:34;;;;;;;;;;;10.50;81.10;;;;;;5075667;28;19923;-79
2023/03/22 05:39:59;;;;;;;;;;;10.40;81.10;;;;;;5060568;28;20460;-80
2023/03/22 05:42:25;;;;;;;;;;;10.40;81.50;;;;;;5078950;28;20320;-80
2023/03/22 05:44:50;;;;;;;;;;;10.50;81.10;;;;;;5081616;28;19912;-79
2023/03/22 05:47:16;;;;;;;;;;;10.60;80.60;;;;;;5068315;28;20037;-79
2023/03/22 05:49:41;;;;;;;;;;;10.60;80.70;;;;;;5065852;28;20030;-79
2023/03/22 05:52:07;;;;;;;;;;;10.60;81.00;;;;;;5085508;28;19998;-79
2023/03/22 05:54:33;;;;;;;;;;;10.60;81.10;;;;;;5081524;28;20294;-80
2023/03/22 05:56:58;;;;;;;;;;;10.70;80.60;;;;;;5081511;28;19919;-79
2023/03/22 05:59:24;;;;;;;;;;;10.70;80.60;;;;;;5063591;28;20365;-79
2023/03/22 06:01:49;;;;;;;;;;;10.80;80.80;;;;;;5081247;28;19928;-79
2023/03/22 06:04:15;;;;;;;;;;;10.80;80.50;;;;;;5071320;28;19958;-78
2023/03/22 06:06:40;;;;;;;;;;;10.90;80.40;;;;;;5062251;28;19928;-79
2023/03/22 06:09:06;;;;;;;;;;;10.90;80.20;;;;;;5084110;28;20557;-79
2023/03/22 06:11:34;;;;;;;;;;;10.90;80.00;;;;;;5064625;28;20029;-79
2023/03/22 06:14:00;;;;;;;;;;;10.80;80.30;;;;;;5058891;28;19912;-79
2023/03/22 06:16:26;;;;;;;;;;;10.90;80.00;;;;;;5070768;28;19943;-78
2023/03/22 06:18:51;;;;;;;;;;;10.90;80.20;;;;;;5070962;28;19916;-79
2023/03/22 06:21:17;;;;;;;;;;;10.90;80.30;;;;;;5077566;28;19974;-80
2023/03/22 06:23:42;;;;;;;;;;;11.00;80.10;;;;;;5087297;28;19912;-79
2023/03/22 06:26:10;;;;;;;;;;;11.00;80.00;;;;;;5067330;28;19926;-77
2023/03/22 06:28:36;;;;;;;;;;;11.00;79.80;;;;;;5071351;28;19990;-78
2023/03/22 06:31:05;;;;;;;;;;;11.00;79.90;;;;;;5074807;28;20476;-85
2023/03/22 06:33:30;;;;;;;;;;;11.10;79.70;;;;;;5069220;28;19920;-78
2023/03/22 06:35:57;;;;;;;;;;;11.20;79.80;;;;;;5067234;28;19923;-80
2023/03/22 06:38:23;;;;;;;;;;;11.30;79.30;;;;;;5085966;28;19977;-80
2023/03/22 06:40:48;;;;;;;;;;;11.40;79.10;;;;;;5090557;28;20382;-79
2023/03/22 06:43:14;;;;;;;;;;;11.50;78.70;;;;;;5087620;28;19919;-81
2023/03/22 06:45:39;;;;;;;;;;;11.50;78.50;;;;;;5076334;28;20398;-80
2023/03/22 06:48:05;;;;;;;;;;;11.50;78.60;;;;;;5077277;28;20279;-80
2023/03/22 06:50:31;;;;;;;;;;;11.50;78.90;;;;;;5084424;28;20422;-79
2023/03/22 06:52:56;;;;;;;;;;;11.60;78.90;;;;;;5089598;28;19938;-81
2023/03/22 06:55:22;;;;;;;;;;;11.60;78.10;;;;;;5082920;28;19943;-80
2023/03/22 06:57:47;;;;;;;;;;;11.60;77.90;;;;;;5101482;28;19969;-79
2023/03/22 07:00:14;;;;;;;;;;;11.70;77.40;;;;;;5095463;28;19912;-79
2023/03/22 07:02:39;;;;;;;;;;;11.80;77.40;;;;;;5090045;28;20294;-80
2023/03/22 07:05:05;;;;;;;;;;;11.80;77.00;;;;;;5080570;28;19909;-77
2023/03/22 07:07:31;;;;;;;;;;;11.80;76.90;;;;;;5067546;28;19988;-79
2023/03/22 07:09:57;;;;;;;;;;;11.80;77.10;;;;;;5067361;28;19955;-81
2023/03/22 07:12:23;;;;;;;;;;;11.80;76.90;;;;;;5085073;28;19924;-82
2023/03/22 07:14:48;;;;;;;;;;;11.90;76.70;;;;;;5075844;28;19908;-82
2023/03/22 07:17:14;;;;;;;;;;;12.00;76.40;;;;;;5079641;28;19920;-78
2023/03/22 07:19:41;;;;;;;;;;;11.90;76.50;;;;;;5099662;28;19918;-78
2023/03/22 07:22:07;;;;;;;;;;;11.90;76.60;;;;;;5078575;28;19930;-78
2023/03/22 07:24:32;;;;;;;;;;;12.00;76.10;;;;;;5102027;28;19948;-77
2023/03/22 07:26:58;;;;;;;;;;;12.00;75.80;;;;;;5099323;28;19919;-78
2023/03/22 07:29:23;;;;;;;;;;;12.00;76.00;;;;;;5073218;28;19955;-80
2023/03/22 07:31:49;;;;;;;;;;;11.80;75.70;;;;;;5081365;28;19921;-80
2023/03/22 07:34:15;;;;;;;;;;;11.80;76.10;;;;;;5081627;28;19916;-79
2023/03/22 07:36:40;;;;;;;;;;;11.80;75.90;;;;;;5088503;28;19949;-79
2023/03/22 07:39:06;;;;;;;;;;;11.90;75.70;;;;;;5089741;28;20363;-79
2023/03/22 07:41:31;;;;;;;;;;;12.00;75.50;;;;;;5104313;28;19912;-79
2023/03/22 07:43:57;;;;;;;;;;;12.10;74.80;;;;;;5078550;28;19942;-78
2023/03/22 07:46:22;;;;;;;;;;;12.10;75.00;;;;;;5085065;28;19896;-80
2023/03/22 07:48:48;;;;;;;;;;;12.10;74.90;;;;;;5086362;28;19934;-80
2023/03/22 07:51:14;;;;;;;;;;;12.30;73.80;;;;;;5108466;28;19916;-81
2023/03/22 07:53:39;;;;;;;;;;;12.30;73.40;;;;;;5108567;28;19916;-80
2023/03/22 07:56:05;;;;;;;;;;;12.40;72.70;;;;;;5079567;28;19920;-79
2023/03/22 07:58:30;;;;;;;;;;;12.60;72.00;;;;;;5081969;28;20001;-79
2023/03/22 08:00:57;;;;;;;;;;;12.70;71.70;;;;;;5076036;28;19923;-81
2023/03/22 08:03:23;;;;;;;;;;;12.80;70.80;;;;;;5100732;28;20006;-80
2023/03/22 08:05:48;;;;;;;;;;;12.80;70.80;;;;;;5084594;28;19919;-81
2023/03/22 08:08:14;;;;;;;;;;;12.90;70.70;;;;;;5102380;28;19919;-79
2023/03/22 08:10:39;;;;;;;;;;;13.00;70.80;;;;;;5072319;28;19928;-78
2023/03/22 08:13:05;;;;;;;;;;;13.00;70.60;;;;;;5101440;28;19912;-79
2023/03/22 08:15:30;;;;;;;;;;;13.10;70.50;;;;;;5081756;28;20014;-80
2023/03/22 08:17:59;;;;;;;;;;;13.10;70.20;;;;;;5099159;28;20600;-79
2023/03/22 08:20:26;;;;;;;;;;;13.10;69.60;;;;;;5078824;28;19920;-82
2023/03/22 08:22:52;;;;;;;;;;;13.00;69.80;;;;;;5100491;28;19915;-81
2023/03/22 08:25:18;;;;;;;;;;;13.00;70.30;;;;;;5083119;28;19912;-82
2023/03/22 08:27:43;;;;;;;;;;;13.00;70.30;;;;;;5087537;28;19948;-81
2023/03/22 08:30:09;;;;;;;;;;;13.00;69.80;;;;;;5100947;28;19912;-81
2023/03/22 08:32:35;;;;;;;;;;;13.00;69.40;;;;;;5078316;28;19916;-79
2023/03/22 08:35:00;;;;;;;;;;;13.00;68.80;;;;;;5077317;28;20347;-80
2023/03/22 08:37:26;;;;;;;;;;;13.10;69.00;;;;;;5092873;28;20359;-81
2023/03/22 08:39:51;;;;;;;;;;;12.90;68.60;;;;;;5076560;28;19916;-82
2023/03/22 08:42:17;;;;;;;;;;;13.00;68.60;;;;;;5085172;28;19919;-82
2023/03/22 08:44:42;;;;;;;;;;;13.00;68.40;;;;;;5085759;28;19923;-81
2023/03/22 08:47:08;;;;;;;;;;;13.10;67.60;;;;;;5084920;28;19995;-81
2023/03/22 08:49:33;;;;;;;;;;;13.10;67.90;;;;;;5095960;28;19920;-82
2023/03/22 08:51:59;;;;;;;;;;;13.10;68.10;;;;;;5097765;28;19916;-80
2023/03/22 08:54:26;;;;;;;;;;;13.20;67.30;;;;;;5084657;28;19915;-81
2023/03/22 08:56:52;;;;;;;;;;;13.30;67.50;;;;;;5105903;28;19912;-79
2023/03/22 08:59:18;;;;;;;;;;;13.30;67.80;;;;;;5083509;28;19920;-81
2023/03/22 09:01:43;;;;;;;;;;;13.30;67.90;;;;;;5067253;28;19998;-81
2023/03/22 09:04:09;;;;;;;;;;;13.30;67.00;;;;;;5064102;28;19947;-81
2023/03/22 09:06:36;;;;;;;;;;;13.30;67.30;;;;;;5085742;28;19912;-80
2023/03/22 09:09:02;;;;;;;;;;;13.30;66.60;;;;;;5066667;28;19935;-81
2023/03/22 09:11:27;;;;;;;;;;;13.30;66.70;;;;;;5075563;28;19920;-82
2023/03/22 09:13:53;;;;;;;;;;;13.30;66.90;;;;;;5072346;28;19973;-80
2023/03/22 09:16:18;;;;;;;;;;;13.30;67.50;;;;;;5078074;28;20562;-81
2023/03/22 09:18:44;;;;;;;;;;;13.40;67.50;;;;;;5074523;28;20047;-80
2023/03/22 09:21:10;;;;;;;;;;;13.50;67.20;;;;;;5065012;28;19912;-81
2023/03/22 09:23:36;;;;;;;;;;;13.40;67.40;;;;;;5067241;28;20008;-80
2023/03/22 09:26:03;;;;;;;;;;;13.40;67.20;;;;;;5066005;28;19918;-80
2023/03/22 09:28:29;;;;;;;;;;;13.50;66.60;;;;;;5075777;28;19908;-80
2023/03/22 09:30:58;;;;;;;;;;;13.40;66.20;;;;;;5068395;28;20343;-79
2023/03/22 09:33:24;;;;;;;;;;;13.30;66.40;;;;;;5060605;28;19913;-79
2023/03/22 09:35:49;;;;;;;;;;;13.30;66.70;;;;;;5075061;28;19970;-80
2023/03/22 09:38:15;;;;;;;;;;;13.40;66.90;;;;;;5094268;28;19908;-80
2023/03/22 09:41:01;;;;;;;;;;;13.50;66.80;;;;;;5074237;28;19944;-80
2023/03/22 09:43:27;;;;;;;;;;;13.60;66.10;;;;;;5077912;28;20252;-81
2023/03/22 09:45:53;;;;;;;;;;;13.50;66.20;;;;;;5063800;28;19920;-80
2023/03/22 09:48:21;;;;;;;;;;;13.60;66.30;;;;;;5089699;28;19919;-80
2023/03/22 09:50:47;;;;;;;;;;;13.60;65.60;;;;;;5059005;28;19916;-79
2023/03/22 09:53:14;;;;;;;;;;;13.70;65.90;;;;;;5060234;28;19972;-80
2023/03/22 09:55:46;;;;;;;;;;;13.90;65.40;;;;;;5084939;28;19920;-80
2023/03/22 09:58:28;;;;;;;;;;;14.00;65.60;;;;;;5065522;28;19923;-80
2023/03/22 10:00:59;;;;;;;;;;;14.10;64.50;;;;;;5087960;28;19966;-80
2023/03/22 10:03:34;;;;;;;;;;;14.00;64.00;;;;;;5094004;28;19912;-80
2023/03/22 10:06:03;;;;;;;;;;;13.90;64.70;;;;;;5058534;28;20368;-79
2023/03/22 10:08:28;;;;;;;;;;;13.80;65.30;;;;;;5068993;28;19916;-81
2023/03/22 10:10:55;;;;;;;;;;;13.60;65.40;;;;;;5058724;28;19920;-79
2023/03/22 10:13:30;;;;;;;;;;;13.70;65.70;;;;;;5077806;28;19920;-80
2023/03/22 10:15:59;;;;;;;;;;;13.80;64.60;;;;;;5063813;28;19934;-81
2023/03/22 10:18:38;;;;;;;;;;;13.90;64.10;;;;;;5074123;28;19964;-80
2023/03/22 10:21:04;;;;;;;;;;;14.00;63.70;;;;;;5060146;28;19912;-79
2023/03/22 10:23:49;;;;;;;;;;;14.10;63.20;;;;;;5083552;28;19948;-80
2023/03/22 10:26:20;;;;;;;;;;;14.10;61.70;;;;;;5071042;28;19972;-80
2023/03/22 10:28:48;;;;;;;;;;;14.20;61.80;;;;;;5085656;28;19913;-80
2023/03/22 10:31:19;;;;;;;;;;;14.30;61.60;;;;;;5087316;28;19976;-80
2023/03/22 10:33:52;;;;;;;;;;;14.50;60.60;;;;;;5063923;28;19919;-81
2023/03/22 10:36:19;;;;;;;;;;;14.50;60.10;;;;;;5087838;28;19934;-79
2023/03/22 10:38:47;;;;;;;;;;;14.40;59.70;;;;;;5070256;28;19936;-80
2023/03/22 10:41:14;;;;;;;;;;;14.30;59.00;;;;;;5094957;28;19912;-81
2023/03/22 10:43:41;;;;;;;;;;;14.20;59.00;;;;;;5074291;28;20016;-83
2023/03/22 10:46:10;;;;;;;;;;;14.20;59.40;;;;;;5076550;28;19971;-80
2023/03/22 10:48:39;;;;;;;;;;;14.20;59.50;;;;;;5073342;28;19912;-80
2023/03/22 10:51:05;;;;;;;;;;;14.30;59.90;;;;;;5090885;28;19916;-80
2023/03/22 10:53:44;;;;;;;;;;;14.30;59.10;;;;;;5072922;28;19918;-80
2023/03/22 10:56:14;;;;;;;;;;;14.30;59.30;;;;;;5076744;28;19912;-79
2023/03/22 10:58:40;;;;;;;;;;;14.50;58.70;;;;;;5096441;28;19922;-80
2023/03/22 11:01:06;;;;;;;;;;;14.50;58.40;;;;;;5093691;28;20018;-80
2023/03/22 11:03:40;;;;;;;;;;;14.60;58.00;;;;;;5061654;28;19916;-80
2023/03/22 11:06:06;;;;;;;;;;;14.60;58.60;;;;;;5088778;28;19912;-80
2023/03/22 11:08:44;;;;;;;;;;;14.50;58.20;;;;;;5078996;28;19919;-83
2023/03/22 11:11:15;;;;;;;;;;;14.50;58.60;;;;;;5071265;28;19916;-82
2023/03/22 11:13:41;;;;;;;;;;;14.40;58.40;;;;;;5092452;28;19919;-80
2023/03/22 11:16:06;;;;;;;;;;;14.50;58.70;;;;;;5082050;28;19913;-80
2023/03/22 11:18:33;;;;;;;;;;;14.50;58.30;;;;;;5073761;28;20626;-80
2023/03/22 11:20:59;;;;;;;;;;;14.50;59.00;;;;;;5078601;28;19951;-81
2023/03/22 11:23:27;;;;;;;;;;;14.50;59.00;;;;;;5062790;28;20360;-82
2023/03/22 11:25:55;;;;;;;;;;;14.60;58.40;;;;;;5097910;28;19916;-80
2023/03/22 11:28:31;;;;;;;;;;;14.60;58.50;;;;;;5077438;28;19985;-81
2023/03/22 11:30:57;;;;;;;;;;;14.70;57.90;;;;;;5090207;28;19931;-81
2023/03/22 11:33:24;;;;;;;;;;;14.80;58.30;;;;;;5077117;28;19913;-82
2023/03/22 11:35:57;;;;;;;;;;;15.00;58.00;;;;;;5071127;28;19920;-80
2023/03/22 11:38:34;;;;;;;;;;;14.90;58.10;;;;;;5072270;28;19983;-81
2023/03/22 11:41:00;;;;;;;;;;;14.70;58.50;;;;;;5077340;28;19919;-80
2023/03/22 11:43:30;;;;;;;;;;;14.70;58.00;;;;;;5093257;28;19970;-81
2023/03/22 11:45:57;;;;;;;;;;;14.70;57.90;;;;;;5076003;28;19916;-80
2023/03/22 11:48:27;;;;;;;;;;;14.60;58.70;;;;;;5074025;28;19916;-81
2023/03/22 11:50:54;;;;;;;;;;;14.60;58.50;;;;;;5076096;28;19916;-80
2023/03/22 11:53:22;;;;;;;;;;;14.60;59.00;;;;;;5070605;28;19912;-81
2023/03/22 11:55:48;;;;;;;;;;;14.60;59.00;;;;;;5079621;28;19981;-80
2023/03/22 11:58:28;;;;;;;;;;;14.60;59.00;;;;;;5073783;28;19973;-81
2023/03/22 12:00:58;;;;;;;;;;;14.50;59.00;;;;;;5073018;28;19923;-80
2023/03/22 12:03:26;;;;;;;;;;;14.50;60.50;;;;;;5064113;28;19923;-80
2023/03/22 12:05:52;;;;;;;;;;;14.30;62.10;;;;;;5094565;28;19912;-81
2023/03/22 12:08:24;;;;;;;;;;;14.30;63.50;;;;;;5077090;28;20010;-81
2023/03/22 12:10:52;;;;;;;;;;;14.10;63.70;;;;;;5079772;28;19955;-82
2023/03/22 12:13:20;;;;;;;;;;;14.10;63.30;;;;;;5096297;28;19969;-81
2023/03/22 12:15:51;;;;;;;;;;;14.10;64.40;;;;;;5077289;28;20411;-79
2023/03/22 12:18:21;;;;;;;;;;;14.20;63.30;;;;;;5069283;28;20334;-79
2023/03/22 12:20:49;;;;;;;;;;;14.20;62.80;;;;;;5092717;28;20414;-78
2023/03/22 12:23:17;;;;;;;;;;;14.20;62.70;;;;;;5067666;28;21407;-79
2023/03/22 12:25:48;;;;;;;;;;;14.10;62.50;;;;;;5091652;28;20012;-78
2023/03/22 12:28:16;;;;;;;;;;;14.30;61.50;;;;;;5091478;28;19941;-79
2023/03/22 12:30:50;;;;;;;;;;;14.30;60.60;;;;;;5071347;28;19916;-79
2023/03/22 12:33:23;;;;;;;;;;;14.10;62.00;;;;;;5091816;28;20509;-79
2023/03/22 12:35:51;;;;;;;;;;;14.10;63.10;;;;;;5075990;28;19950;-79
2023/03/22 12:38:35;;;;;;;;;;;14.20;62.40;;;;;;5065558;28;20248;-79
2023/03/22 12:41:03;;;;;;;;;;;14.20;62.00;;;;;;5067809;28;19920;-78
2023/03/22 12:43:43;;;;;;;;;;;14.10;62.10;;;;;;5071051;28;20473;-78
2023/03/22 12:46:20;;;;;;;;;;;14.20;61.80;;;;;;5068438;28;19912;-80
2023/03/22 12:48:52;;;;;;;;;;;14.30;61.70;;;;;;5063853;28;19918;-80
2023/03/22 12:51:18;;;;;;;;;;;14.50;60.80;;;;;;5065563;28;19938;-78
2023/03/22 12:53:46;;;;;;;;;;;14.50;60.60;;;;;;5094473;28;20286;-78
2023/03/22 12:56:13;;;;;;;;;;;14.60;61.10;;;;;;5073450;28;19920;-80
2023/03/22 12:58:39;;;;;;;;;;;14.60;60.50;;;;;;5075105;28;19996;-79
2023/03/22 13:01:25;;;;;;;;;;;14.60;60.30;;;;;;5089119;28;19920;-80
2023/03/22 13:03:53;;;;;;;;;;;14.50;60.30;;;;;;5053029;28;19912;-79
2023/03/22 13:06:31;;;;;;;;;;;14.30;61.00;;;;;;5072022;28;19913;-79
2023/03/22 13:09:14;;;;;;;;;;;14.20;62.10;;;;;;5083207;28;19958;-80
2023/03/22 13:11:41;;;;;;;;;;;14.10;63.50;;;;;;5094939;28;19916;-77
2023/03/22 13:14:10;;;;;;;;;;;14.10;63.60;;;;;;5059146;28;20487;-78
2023/03/22 13:16:54;;;;;;;;;;;13.80;65.40;;;;;;5080556;28;19964;-79
2023/03/22 13:19:46;;;;;;;;;;;13.70;65.20;;;;;;5064078;28;20394;-80
2023/03/22 13:22:12;;;;;;;;;;;13.60;66.20;;;;;;5067945;28;20070;-80
2023/03/22 13:24:57;;;;;;;;;;;13.60;65.70;;;;;;5056945;28;19927;-79
2023/03/22 13:27:22;;;;;;;;;;;13.50;66.10;;;;;;5064071;28;20014;-80
2023/03/22 13:29:48;;;;;;;;;;;13.50;65.20;;;;;;5074495;28;20007;-83
2023/03/22 13:32:32;;;;;;;;;;;13.50;65.10;;;;;;5082708;28;19916;-81
2023/03/22 13:34:58;;;;;;;;;;;13.60;65.80;;;;;;5090906;28;19916;-80
2023/03/22 13:37:35;;;;;;;;;;;13.70;64.80;;;;;;5082155;28;19912;-80
2023/03/22 13:40:10;;;;;;;;;;;13.80;63.90;;;;;;5082902;28;19923;-81
2023/03/22 13:42:39;;;;;;;;;;;13.90;62.90;;;;;;5082140;28;19912;-81
2023/03/22 13:45:30;;;;;;;;;;;13.90;62.60;;;;;;5075607;28;19912;-80
2023/03/22 13:48:03;;;;;;;;;;;14.00;62.40;;;;;;5082141;28;19920;-81
2023/03/22 13:50:30;;;;;;;;;;;14.10;61.20;;;;;;5072872;28;19998;-82
2023/03/22 13:53:02;;;;;;;;;;;14.10;62.20;;;;;;5075286;28;19992;-80
2023/03/22 13:55:35;;;;;;;;;;;14.10;61.10;;;;;;5099968;28;20316;-80
2023/03/22 13:58:01;;;;;;;;;;;14.20;60.50;;;;;;5077045;28;20522;-81
2023/03/22 14:00:30;;;;;;;;;;;14.10;61.30;;;;;;5072469;28;19938;-81
2023/03/22 14:03:11;;;;;;;;;;;14.10;61.00;;;;;;5067663;28;19916;-81
2023/03/22 14:05:37;;;;;;;;;;;14.20;60.90;;;;;;5091707;28;19913;-80
2023/03/22 14:08:03;;;;;;;;;;;14.30;60.80;;;;;;5072496;28;19913;-81
2023/03/22 14:10:41;;;;;;;;;;;14.40;60.40;;;;;;5087548;28;19935;-81
2023/03/22 14:13:13;;;;;;;;;;;14.50;59.80;;;;;;5061061;28;19916;-80
2023/03/22 14:15:45;;;;;;;;;;;14.50;60.10;;;;;;5086541;28;19919;-80
2023/03/22 14:18:13;;;;;;;;;;;14.50;59.80;;;;;;5061277;28;20003;-80
2023/03/22 14:20:39;;;;;;;;;;;14.50;60.70;;;;;;5071766;28;20011;-80
2023/03/22 14:23:04;;;;;;;;;;;14.40;60.10;;;;;;5091867;28;19981;-81
2023/03/22 14:25:31;;;;;;;;;;;14.30;60.40;;;;;;5064581;28;19920;-80
2023/03/22 14:27:57;;;;;;;;;;;14.20;60.90;;;;;;5085170;28;19916;-80